sensor_id;sensor_type;location;lat;lon;timestamp;temperature;humidity
26579;DHT22;14227;47.674;19.320;2023-02-18T00:00:20;12.40;61.50
26579;DHT22;14227;47.674;19.320;2023-02-18T00:02:56;12.50;61.60
26579;DHT22;14227;47.674;19.320;2023-02-18T00:05:24;12.50;61.40
26579;DHT22;14227;47.674;19.320;2023-02-18T00:08:01;12.50;61.30
26579;DHT22;14227;47.674;19.320;2023-02-18T00:10:31;12.50;61.40
26579;DHT22;14227;47.674;19.320;2023-02-18T00:12:59;12.50;61.50
26579;DHT22;14227;47.674;19.320;2023-02-18T00:15:26;12.40;61.50
26579;DHT22;14227;47.674;19.320;2023-02-18T00:17:52;12.50;61.80
26579;DHT22;14227;47.674;19.320;2023-02-18T00:20:31;12.40;61.90
26579;DHT22;14227;47.674;19.320;2023-02-18T00:23:05;12.50;62.50
26579;DHT22;14227;47.674;19.320;2023-02-18T00:25:33;12.60;62.10
26579;DHT22;14227;47.674;19.320;2023-02-18T00:27:59;12.60;61.40
26579;DHT22;14227;47.674;19.320;2023-02-18T00:30:25;12.60;61.70
26579;DHT22;14227;47.674;19.320;2023-02-18T00:32:55;12.60;61.90
26579;DHT22;14227;47.674;19.320;2023-02-18T00:35:23;12.60;62.00
26579;DHT22;14227;47.674;19.320;2023-02-18T00:37:51;12.60;62.10
26579;DHT22;14227;47.674;19.320;2023-02-18T00:40:38;12.60;62.10
26579;DHT22;14227;47.674;19.320;2023-02-18T00:43:04;12.70;61.50
26579;DHT22;14227;47.674;19.320;2023-02-18T00:45:34;12.70;62.00
26579;DHT22;14227;47.674;19.320;2023-02-18T00:47:59;12.70;62.20
26579;DHT22;14227;47.674;19.320;2023-02-18T00:50:41;12.70;62.70
26579;DHT22;14227;47.674;19.320;2023-02-18T00:53:09;12.70;62.20
26579;DHT22;14227;47.674;19.320;2023-02-18T00:55:43;12.80;62.10
26579;DHT22;14227;47.674;19.320;2023-02-18T00:58:14;12.80;62.20
26579;DHT22;14227;47.674;19.320;2023-02-18T01:00:50;12.80;62.20
26579;DHT22;14227;47.674;19.320;2023-02-18T01:03:16;12.80;62.30
26579;DHT22;14227;47.674;19.320;2023-02-18T01:05:45;12.80;62.20
26579;DHT22;14227;47.674;19.320;2023-02-18T01:08:12;12.90;62.30
26579;DHT22;14227;47.674;19.320;2023-02-18T01:10:58;12.80;62.00
26579;DHT22;14227;47.674;19.320;2023-02-18T01:13:29;12.80;61.80
26579;DHT22;14227;47.674;19.320;2023-02-18T01:15:58;12.90;62.20
26579;DHT22;14227;47.674;19.320;2023-02-18T01:18:28;12.90;62.10
26579;DHT22;14227;47.674;19.320;2023-02-18T01:20:57;12.90;62.10
26579;DHT22;14227;47.674;19.320;2023-02-18T01:23:25;12.90;62.10
26579;DHT22;14227;47.674;19.320;2023-02-18T01:26:01;12.90;62.10
26579;DHT22;14227;47.674;19.320;2023-02-18T01:28:28;12.90;62.00
26579;DHT22;14227;47.674;19.320;2023-02-18T01:30:57;13.00;62.20
26579;DHT22;14227;47.674;19.320;2023-02-18T01:33:31;13.00;62.10
26579;DHT22;14227;47.674;19.320;2023-02-18T01:35:59;13.00;61.80
26579;DHT22;14227;47.674;19.320;2023-02-18T01:38:30;13.00;61.90
26579;DHT22;14227;47.674;19.320;2023-02-18T01:40:56;13.00;62.00
26579;DHT22;14227;47.674;19.320;2023-02-18T01:43:25;13.00;62.10
26579;DHT22;14227;47.674;19.320;2023-02-18T01:46:02;13.00;62.10
26579;DHT22;14227;47.674;19.320;2023-02-18T01:54:30;13.00;62.30
26579;DHT22;14227;47.674;19.320;2023-02-18T01:57:13;13.00;62.30
26579;DHT22;14227;47.674;19.320;2023-02-18T02:02:25;13.10;62.10
26579;DHT22;14227;47.674;19.320;2023-02-18T02:04:54;13.10;61.90
26579;DHT22;14227;47.674;19.320;2023-02-18T02:07:23;13.10;61.40
26579;DHT22;14227;47.674;19.320;2023-02-18T02:10:12;13.10;61.80
26579;DHT22;14227;47.674;19.320;2023-02-18T02:13:02;13.10;62.00
26579;DHT22;14227;47.674;19.320;2023-02-18T02:15:46;13.10;61.90
26579;DHT22;14227;47.674;19.320;2023-02-18T02:24:47;13.20;61.80
26579;DHT22;14227;47.674;19.320;2023-02-18T02:38:54;13.20;61.90
26579;DHT22;14227;47.674;19.320;2023-02-18T02:44:19;13.20;61.90
26579;DHT22;14227;47.674;19.320;2023-02-18T02:46:59;13.20;61.80
26579;DHT22;14227;47.674;19.320;2023-02-18T02:49:56;13.20;61.80
26579;DHT22;14227;47.674;19.320;2023-02-18T02:52:35;13.30;61.80
26579;DHT22;14227;47.674;19.320;2023-02-18T02:55:08;13.30;61.90
26579;DHT22;14227;47.674;19.320;2023-02-18T02:57:47;13.30;61.90
26579;DHT22;14227;47.674;19.320;2023-02-18T03:00:25;13.30;61.90
26579;DHT22;14227;47.674;19.320;2023-02-18T03:08:44;13.40;61.80
26579;DHT22;14227;47.674;19.320;2023-02-18T03:11:15;13.40;61.70
26579;DHT22;14227;47.674;19.320;2023-02-18T03:14:00;13.40;62.00
26579;DHT22;14227;47.674;19.320;2023-02-18T03:16:44;13.40;61.80
26579;DHT22;14227;47.674;19.320;2023-02-18T03:19:34;13.40;61.60
26579;DHT22;14227;47.674;19.320;2023-02-18T03:22:15;13.40;61.80
26579;DHT22;14227;47.674;19.320;2023-02-18T03:24:52;13.40;61.70
26579;DHT22;14227;47.674;19.320;2023-02-18T03:28:16;13.40;61.50
26579;DHT22;14227;47.674;19.320;2023-02-18T03:30:42;13.40;61.50
26579;DHT22;14227;47.674;19.320;2023-02-18T03:33:19;13.40;61.30
26579;DHT22;14227;47.674;19.320;2023-02-18T03:35:51;13.40;61.10
26579;DHT22;14227;47.674;19.320;2023-02-18T03:38:27;13.50;61.20
26579;DHT22;14227;47.674;19.320;2023-02-18T03:41:04;13.40;61.10
26579;DHT22;14227;47.674;19.320;2023-02-18T03:43:32;13.50;60.90
26579;DHT22;14227;47.674;19.320;2023-02-18T03:46:02;13.50;60.60
26579;DHT22;14227;47.674;19.320;2023-02-18T03:48:31;13.40;60.30
26579;DHT22;14227;47.674;19.320;2023-02-18T03:50:56;13.50;60.20
26579;DHT22;14227;47.674;19.320;2023-02-18T03:53:27;13.50;60.30
26579;DHT22;14227;47.674;19.320;2023-02-18T03:55:55;13.40;60.40
26579;DHT22;14227;47.674;19.320;2023-02-18T03:58:25;13.40;60.60
26579;DHT22;14227;47.674;19.320;2023-02-18T04:00:52;13.40;60.50
26579;DHT22;14227;47.674;19.320;2023-02-18T04:03:20;13.40;60.60
26579;DHT22;14227;47.674;19.320;2023-02-18T04:05:56;13.50;61.00
26579;DHT22;14227;47.674;19.320;2023-02-18T04:08:22;13.50;60.90
26579;DHT22;14227;47.674;19.320;2023-02-18T04:11:06;13.50;60.60
26579;DHT22;14227;47.674;19.320;2023-02-18T04:13:43;13.50;59.90
26579;DHT22;14227;47.674;19.320;2023-02-18T04:16:11;13.50;60.50
26579;DHT22;14227;47.674;19.320;2023-02-18T04:18:42;13.50;60.70
26579;DHT22;14227;47.674;19.320;2023-02-18T04:21:08;13.50;60.70
26579;DHT22;14227;47.674;19.320;2023-02-18T04:23:36;13.50;60.90
26579;DHT22;14227;47.674;19.320;2023-02-18T04:26:07;13.60;60.40
26579;DHT22;14227;47.674;19.320;2023-02-18T04:28:47;13.60;60.80
26579;DHT22;14227;47.674;19.320;2023-02-18T04:31:15;13.60;60.90
26579;DHT22;14227;47.674;19.320;2023-02-18T04:33:45;13.60;61.00
26579;DHT22;14227;47.674;19.320;2023-02-18T04:36:19;13.60;61.00
26579;DHT22;14227;47.674;19.320;2023-02-18T04:38:54;13.60;60.80
26579;DHT22;14227;47.674;19.320;2023-02-18T04:41:23;13.60;60.80
26579;DHT22;14227;47.674;19.320;2023-02-18T04:43:52;13.70;61.00
26579;DHT22;14227;47.674;19.320;2023-02-18T04:46:30;13.70;60.50
26579;DHT22;14227;47.674;19.320;2023-02-18T04:49:05;13.60;60.40
26579;DHT22;14227;47.674;19.320;2023-02-18T04:51:35;13.60;60.70
26579;DHT22;14227;47.674;19.320;2023-02-18T04:54:04;13.70;60.90
26579;DHT22;14227;47.674;19.320;2023-02-18T04:56:40;13.70;60.80
26579;DHT22;14227;47.674;19.320;2023-02-18T04:59:08;13.70;61.00
26579;DHT22;14227;47.674;19.320;2023-02-18T05:01:36;13.70;61.00
26579;DHT22;14227;47.674;19.320;2023-02-18T05:04:05;13.70;60.60
26579;DHT22;14227;47.674;19.320;2023-02-18T05:06:34;13.70;60.50
26579;DHT22;14227;47.674;19.320;2023-02-18T05:09:20;13.70;60.60
26579;DHT22;14227;47.674;19.320;2023-02-18T05:11:55;13.70;60.70
26579;DHT22;14227;47.674;19.320;2023-02-18T05:14:24;13.70;60.90
26579;DHT22;14227;47.674;19.320;2023-02-18T05:16:52;13.70;60.80
26579;DHT22;14227;47.674;19.320;2023-02-18T05:19:20;13.70;60.90
26579;DHT22;14227;47.674;19.320;2023-02-18T05:21:55;13.70;60.80
26579;DHT22;14227;47.674;19.320;2023-02-18T05:24:27;13.70;60.40
26579;DHT22;14227;47.674;19.320;2023-02-18T05:26:53;13.70;60.90
26579;DHT22;14227;47.674;19.320;2023-02-18T05:29:25;13.70;60.60
26579;DHT22;14227;47.674;19.320;2023-02-18T05:31:51;13.80;60.90
26579;DHT22;14227;47.674;19.320;2023-02-18T05:34:25;13.70;61.10
26579;DHT22;14227;47.674;19.320;2023-02-18T05:37:06;13.80;60.90
26579;DHT22;14227;47.674;19.320;2023-02-18T05:39:33;13.80;61.10
26579;DHT22;14227;47.674;19.320;2023-02-18T05:42:02;13.80;61.00
26579;DHT22;14227;47.674;19.320;2023-02-18T05:44:28;13.80;61.00
26579;DHT22;14227;47.674;19.320;2023-02-18T05:47:09;13.80;61.10
26579;DHT22;14227;47.674;19.320;2023-02-18T05:49:44;13.80;60.90
26579;DHT22;14227;47.674;19.320;2023-02-18T05:52:24;13.80;60.80
26579;DHT22;14227;47.674;19.320;2023-02-18T05:55:02;13.80;60.80
26579;DHT22;14227;47.674;19.320;2023-02-18T05:57:30;13.80;60.80
26579;DHT22;14227;47.674;19.320;2023-02-18T06:00:01;13.80;60.80
26579;DHT22;14227;47.674;19.320;2023-02-18T06:02:31;13.80;60.80
26579;DHT22;14227;47.674;19.320;2023-02-18T06:05:02;13.80;60.60
26579;DHT22;14227;47.674;19.320;2023-02-18T06:07:31;13.80;60.60
26579;DHT22;14227;47.674;19.320;2023-02-18T06:10:08;13.90;60.60
26579;DHT22;14227;47.674;19.320;2023-02-18T06:12:41;13.80;60.50
26579;DHT22;14227;47.674;19.320;2023-02-18T06:15:12;13.80;60.60
26579;DHT22;14227;47.674;19.320;2023-02-18T06:17:40;13.80;60.80
26579;DHT22;14227;47.674;19.320;2023-02-18T06:20:13;13.80;60.60
26579;DHT22;14227;47.674;19.320;2023-02-18T06:22:39;13.80;60.40
26579;DHT22;14227;47.674;19.320;2023-02-18T06:25:14;13.80;60.70
26579;DHT22;14227;47.674;19.320;2023-02-18T06:27:47;13.80;60.60
26579;DHT22;14227;47.674;19.320;2023-02-18T06:30:16;13.80;60.70
26579;DHT22;14227;47.674;19.320;2023-02-18T06:32:46;13.80;60.70
26579;DHT22;14227;47.674;19.320;2023-02-18T06:35:20;13.80;60.80
26579;DHT22;14227;47.674;19.320;2023-02-18T06:37:50;13.80;60.60
26579;DHT22;14227;47.674;19.320;2023-02-18T06:40:24;13.80;60.30
26579;DHT22;14227;47.674;19.320;2023-02-18T06:42:52;13.90;60.50
26579;DHT22;14227;47.674;19.320;2023-02-18T06:45:23;13.90;60.40
26579;DHT22;14227;47.674;19.320;2023-02-18T06:47:58;13.90;60.70
26579;DHT22;14227;47.674;19.320;2023-02-18T06:50:29;13.90;60.40
26579;DHT22;14227;47.674;19.320;2023-02-18T06:53:00;13.90;60.40
26579;DHT22;14227;47.674;19.320;2023-02-18T06:55:26;13.90;60.40
26579;DHT22;14227;47.674;19.320;2023-02-18T06:57:54;13.90;60.20
26579;DHT22;14227;47.674;19.320;2023-02-18T07:00:23;14.00;60.50
26579;DHT22;14227;47.674;19.320;2023-02-18T07:02:51;13.80;60.20
26579;DHT22;14227;47.674;19.320;2023-02-18T07:05:17;13.90;60.80
26579;DHT22;14227;47.674;19.320;2023-02-18T07:07:46;13.90;60.20
26579;DHT22;14227;47.674;19.320;2023-02-18T07:10:18;13.90;60.10
26579;DHT22;14227;47.674;19.320;2023-02-18T07:12:52;13.90;60.20
26579;DHT22;14227;47.674;19.320;2023-02-18T07:15:26;13.90;60.20
26579;DHT22;14227;47.674;19.320;2023-02-18T07:17:58;13.90;60.00
26579;DHT22;14227;47.674;19.320;2023-02-18T07:20:24;13.90;60.10
26579;DHT22;14227;47.674;19.320;2023-02-18T07:22:53;13.90;60.30
26579;DHT22;14227;47.674;19.320;2023-02-18T07:25:24;13.80;60.00
26579;DHT22;14227;47.674;19.320;2023-02-18T07:27:52;13.80;60.00
26579;DHT22;14227;47.674;19.320;2023-02-18T07:30:21;13.80;60.00
26579;DHT22;14227;47.674;19.320;2023-02-18T07:32:47;13.90;60.30
26579;DHT22;14227;47.674;19.320;2023-02-18T07:35:17;13.90;60.40
26579;DHT22;14227;47.674;19.320;2023-02-18T07:37:50;13.90;60.50
26579;DHT22;14227;47.674;19.320;2023-02-18T07:44:13;13.90;60.40
26579;DHT22;14227;47.674;19.320;2023-02-18T07:47:03;13.80;60.50
26579;DHT22;14227;47.674;19.320;2023-02-18T07:49:31;13.80;60.60
26579;DHT22;14227;47.674;19.320;2023-02-18T07:52:01;13.80;60.80
26579;DHT22;14227;47.674;19.320;2023-02-18T07:54:30;13.80;60.80
26579;DHT22;14227;47.674;19.320;2023-02-18T07:56:56;13.80;60.60
26579;DHT22;14227;47.674;19.320;2023-02-18T07:59:32;13.80;60.60
26579;DHT22;14227;47.674;19.320;2023-02-18T08:02:00;13.80;60.60
26579;DHT22;14227;47.674;19.320;2023-02-18T08:04:32;13.80;60.60
26579;DHT22;14227;47.674;19.320;2023-02-18T08:06:58;13.80;60.80
26579;DHT22;14227;47.674;19.320;2023-02-18T08:09:24;13.80;60.60
26579;DHT22;14227;47.674;19.320;2023-02-18T08:11:50;13.80;60.70
26579;DHT22;14227;47.674;19.320;2023-02-18T08:14:19;13.80;60.70
26579;DHT22;14227;47.674;19.320;2023-02-18T08:16:47;13.80;60.90
26579;DHT22;14227;47.674;19.320;2023-02-18T08:19:15;13.80;60.90
26579;DHT22;14227;47.674;19.320;2023-02-18T08:21:41;13.80;60.90
26579;DHT22;14227;47.674;19.320;2023-02-18T08:24:10;13.80;60.70
26579;DHT22;14227;47.674;19.320;2023-02-18T08:26:39;13.90;60.70
26579;DHT22;14227;47.674;19.320;2023-02-18T08:29:05;13.90;60.60
26579;DHT22;14227;47.674;19.320;2023-02-18T08:31:32;13.90;60.40
26579;DHT22;14227;47.674;19.320;2023-02-18T08:33:59;13.90;60.30
26579;DHT22;14227;47.674;19.320;2023-02-18T08:36:26;13.90;59.90
26579;DHT22;14227;47.674;19.320;2023-02-18T08:38:52;13.90;60.10
26579;DHT22;14227;47.674;19.320;2023-02-18T08:41:21;13.90;60.00
26579;DHT22;14227;47.674;19.320;2023-02-18T08:43:47;13.90;60.50
26579;DHT22;14227;47.674;19.320;2023-02-18T08:46:24;13.80;60.40
26579;DHT22;14227;47.674;19.320;2023-02-18T08:48:52;13.90;60.70
26579;DHT22;14227;47.674;19.320;2023-02-18T08:51:20;13.90;60.70
26579;DHT22;14227;47.674;19.320;2023-02-18T08:53:51;13.90;60.70
26579;DHT22;14227;47.674;19.320;2023-02-18T08:56:19;13.90;60.90
26579;DHT22;14227;47.674;19.320;2023-02-18T08:58:45;13.90;60.90
26579;DHT22;14227;47.674;19.320;2023-02-18T09:01:17;13.90;60.90
26579;DHT22;14227;47.674;19.320;2023-02-18T09:03:50;14.00;60.80
26579;DHT22;14227;47.674;19.320;2023-02-18T09:06:16;14.00;60.60
26579;DHT22;14227;47.674;19.320;2023-02-18T09:08:45;14.00;60.60
26579;DHT22;14227;47.674;19.320;2023-02-18T09:11:13;14.00;60.80
26579;DHT22;14227;47.674;19.320;2023-02-18T09:13:45;14.00;60.90
26579;DHT22;14227;47.674;19.320;2023-02-18T09:16:16;14.00;60.00
26579;DHT22;14227;47.674;19.320;2023-02-18T09:18:48;14.00;60.30
26579;DHT22;14227;47.674;19.320;2023-02-18T09:21:15;14.00;60.60
26579;DHT22;14227;47.674;19.320;2023-02-18T09:23:42;14.00;60.60
26579;DHT22;14227;47.674;19.320;2023-02-18T09:26:12;14.00;60.80
26579;DHT22;14227;47.674;19.320;2023-02-18T09:28:41;14.10;61.50
26579;DHT22;14227;47.674;19.320;2023-02-18T09:31:28;14.10;60.60
26579;DHT22;14227;47.674;19.320;2023-02-18T09:34:16;14.10;60.30
26579;DHT22;14227;47.674;19.320;2023-02-18T09:37:33;14.10;60.50
26579;DHT22;14227;47.674;19.320;2023-02-18T09:44:24;14.10;60.30
26579;DHT22;14227;47.674;19.320;2023-02-18T09:47:05;14.10;60.60
26579;DHT22;14227;47.674;19.320;2023-02-18T09:49:40;14.20;60.80
26579;DHT22;14227;47.674;19.320;2023-02-18T10:18:29;14.30;60.90
26579;DHT22;14227;47.674;19.320;2023-02-18T10:21:05;14.40;61.10
26579;DHT22;14227;47.674;19.320;2023-02-18T11:00:49;15.00;59.50
26579;DHT22;14227;47.674;19.320;2023-02-18T11:07:05;15.00;59.50
26579;DHT22;14227;47.674;19.320;2023-02-18T11:27:16;15.20;59.00
26579;DHT22;14227;47.674;19.320;2023-02-18T11:42:17;15.20;54.10
26579;DHT22;14227;47.674;19.320;2023-02-18T11:45:03;15.20;53.80
26579;DHT22;14227;47.674;19.320;2023-02-18T11:47:44;15.20;53.70
26579;DHT22;14227;47.674;19.320;2023-02-18T11:50:28;15.20;53.50
26579;DHT22;14227;47.674;19.320;2023-02-18T11:59:34;15.30;52.90
26579;DHT22;14227;47.674;19.320;2023-02-18T12:06:00;15.30;52.80
26579;DHT22;14227;47.674;19.320;2023-02-18T12:08:41;15.30;53.30
26579;DHT22;14227;47.674;19.320;2023-02-18T12:12:09;15.30;53.40
26579;DHT22;14227;47.674;19.320;2023-02-18T12:18:32;15.30;53.90
26579;DHT22;14227;47.674;19.320;2023-02-18T12:31:53;15.40;54.00
26579;DHT22;14227;47.674;19.320;2023-02-18T12:52:40;15.50;55.00
26579;DHT22;14227;47.674;19.320;2023-02-18T13:01:33;15.50;54.90
26579;DHT22;14227;47.674;19.320;2023-02-18T13:04:39;15.60;55.90
26579;DHT22;14227;47.674;19.320;2023-02-18T13:13:19;15.60;58.80
26579;DHT22;14227;47.674;19.320;2023-02-18T13:16:32;15.60;58.80
26579;DHT22;14227;47.674;19.320;2023-02-18T13:21:57;15.60;59.00
26579;DHT22;14227;47.674;19.320;2023-02-18T13:24:44;15.60;59.20
26579;DHT22;14227;47.674;19.320;2023-02-18T13:27:40;15.70;59.00
26579;DHT22;14227;47.674;19.320;2023-02-18T13:33:17;15.70;59.20
26579;DHT22;14227;47.674;19.320;2023-02-18T13:35:54;15.70;58.70
26579;DHT22;14227;47.674;19.320;2023-02-18T13:41:07;15.70;55.80
26579;DHT22;14227;47.674;19.320;2023-02-18T13:43:36;15.70;54.00
26579;DHT22;14227;47.674;19.320;2023-02-18T13:46:11;15.80;53.90
26579;DHT22;14227;47.674;19.320;2023-02-18T13:48:44;15.80;53.40
26579;DHT22;14227;47.674;19.320;2023-02-18T13:51:14;15.80;52.70
26579;DHT22;14227;47.674;19.320;2023-02-18T13:53:43;15.90;52.50
26579;DHT22;14227;47.674;19.320;2023-02-18T13:56:20;16.00;52.60
26579;DHT22;14227;47.674;19.320;2023-02-18T13:59:09;16.00;51.90
26579;DHT22;14227;47.674;19.320;2023-02-18T14:01:50;16.10;51.70
26579;DHT22;14227;47.674;19.320;2023-02-18T14:09:51;16.30;52.30
26579;DHT22;14227;47.674;19.320;2023-02-18T14:26:04;16.40;57.50
26579;DHT22;14227;47.674;19.320;2023-02-18T14:33:36;16.40;59.30
26579;DHT22;14227;47.674;19.320;2023-02-18T14:51:32;16.40;58.00
26579;DHT22;14227;47.674;19.320;2023-02-18T14:54:34;16.30;57.90
26579;DHT22;14227;47.674;19.320;2023-02-18T14:57:34;16.30;58.20
26579;DHT22;14227;47.674;19.320;2023-02-18T15:00:48;16.30;58.20
26579;DHT22;14227;47.674;19.320;2023-02-18T15:04:10;16.30;58.20
26579;DHT22;14227;47.674;19.320;2023-02-18T15:06:59;16.30;58.40
26579;DHT22;14227;47.674;19.320;2023-02-18T15:10:13;16.40;58.10
26579;DHT22;14227;47.674;19.320;2023-02-18T15:13:03;16.30;58.10
26579;DHT22;14227;47.674;19.320;2023-02-18T15:25:46;16.30;58.00
26579;DHT22;14227;47.674;19.320;2023-02-18T15:33:24;16.30;57.90
26579;DHT22;14227;47.674;19.320;2023-02-18T15:39:33;16.30;57.70
26579;DHT22;14227;47.674;19.320;2023-02-18T15:52:00;16.30;59.10
26579;DHT22;14227;47.674;19.320;2023-02-18T15:55:01;16.40;60.10
26579;DHT22;14227;47.674;19.320;2023-02-18T15:57:33;16.40;60.60
26579;DHT22;14227;47.674;19.320;2023-02-18T16:00:34;16.40;61.60
26579;DHT22;14227;47.674;19.320;2023-02-18T16:04:07;16.50;62.00
26579;DHT22;14227;47.674;19.320;2023-02-18T16:07:48;16.50;62.00
26579;DHT22;14227;47.674;19.320;2023-02-18T16:13:35;16.50;62.00
26579;DHT22;14227;47.674;19.320;2023-02-18T16:24:01;16.50;62.80
26579;DHT22;14227;47.674;19.320;2023-02-18T16:27:35;16.50;62.90
26579;DHT22;14227;47.674;19.320;2023-02-18T16:51:43;16.50;63.90
26579;DHT22;14227;47.674;19.320;2023-02-18T17:02:37;16.50;63.80
26579;DHT22;14227;47.674;19.320;2023-02-18T17:05:33;16.50;64.10
26579;DHT22;14227;47.674;19.320;2023-02-18T17:11:58;16.50;64.00
26579;DHT22;14227;47.674;19.320;2023-02-18T17:14:34;16.50;64.00
26579;DHT22;14227;47.674;19.320;2023-02-18T17:17:09;16.50;64.20
26579;DHT22;14227;47.674;19.320;2023-02-18T17:19:39;16.50;64.10
26579;DHT22;14227;47.674;19.320;2023-02-18T17:22:11;16.50;64.20
26579;DHT22;14227;47.674;19.320;2023-02-18T17:25:39;16.50;64.10
26579;DHT22;14227;47.674;19.320;2023-02-18T17:28:14;16.50;63.90
26579;DHT22;14227;47.674;19.320;2023-02-18T17:30:52;16.40;63.80
26579;DHT22;14227;47.674;19.320;2023-02-18T17:33:38;16.50;63.80
26579;DHT22;14227;47.674;19.320;2023-02-18T17:36:12;16.50;63.80
26579;DHT22;14227;47.674;19.320;2023-02-18T17:38:46;16.50;63.80
26579;DHT22;14227;47.674;19.320;2023-02-18T17:41:49;16.40;63.60
26579;DHT22;14227;47.674;19.320;2023-02-18T17:45:31;16.40;63.40
26579;DHT22;14227;47.674;19.320;2023-02-18T17:48:26;16.40;63.30
26579;DHT22;14227;47.674;19.320;2023-02-18T17:51:24;16.40;63.30
26579;DHT22;14227;47.674;19.320;2023-02-18T17:54:50;16.50;63.30
26579;DHT22;14227;47.674;19.320;2023-02-18T17:58:33;16.40;63.10
26579;DHT22;14227;47.674;19.320;2023-02-18T18:01:32;16.40;63.00
26579;DHT22;14227;47.674;19.320;2023-02-18T18:04:44;16.40;63.10
26579;DHT22;14227;47.674;19.320;2023-02-18T18:08:03;16.30;62.90
26579;DHT22;14227;47.674;19.320;2023-02-18T18:11:34;16.30;62.80
26579;DHT22;14227;47.674;19.320;2023-02-18T18:14:25;16.30;62.80
26579;DHT22;14227;47.674;19.320;2023-02-18T18:17:37;16.30;62.70
26579;DHT22;14227;47.674;19.320;2023-02-18T18:20:27;16.30;62.40
26579;DHT22;14227;47.674;19.320;2023-02-18T18:23:50;16.30;62.60
26579;DHT22;14227;47.674;19.320;2023-02-18T18:27:16;16.30;62.50
26579;DHT22;14227;47.674;19.320;2023-02-18T18:30:26;16.20;62.40
26579;DHT22;14227;47.674;19.320;2023-02-18T18:33:29;16.20;62.30
26579;DHT22;14227;47.674;19.320;2023-02-18T18:36:55;16.20;62.20
26579;DHT22;14227;47.674;19.320;2023-02-18T18:40:32;16.20;62.20
26579;DHT22;14227;47.674;19.320;2023-02-18T18:47:52;16.20;62.00
26579;DHT22;14227;47.674;19.320;2023-02-18T18:50:28;16.20;61.80
26579;DHT22;14227;47.674;19.320;2023-02-18T18:53:45;16.10;61.90
26579;DHT22;14227;47.674;19.320;2023-02-18T18:57:05;16.20;61.80
26579;DHT22;14227;47.674;19.320;2023-02-18T19:00:29;16.20;61.80
26579;DHT22;14227;47.674;19.320;2023-02-18T19:03:10;16.10;61.70
26579;DHT22;14227;47.674;19.320;2023-02-18T19:06:19;16.10;61.70
26579;DHT22;14227;47.674;19.320;2023-02-18T19:09:59;16.00;61.60
26579;DHT22;14227;47.674;19.320;2023-02-18T19:13:45;16.00;61.60
26579;DHT22;14227;47.674;19.320;2023-02-18T19:17:01;16.10;61.70
26579;DHT22;14227;47.674;19.320;2023-02-18T19:20:19;16.00;61.60
26579;DHT22;14227;47.674;19.320;2023-02-18T19:24:02;16.00;61.60
26579;DHT22;14227;47.674;19.320;2023-02-18T19:27:23;16.10;61.70
26579;DHT22;14227;47.674;19.320;2023-02-18T19:30:29;16.00;61.60
26579;DHT22;14227;47.674;19.320;2023-02-18T19:33:40;15.90;61.50
26579;DHT22;14227;47.674;19.320;2023-02-18T19:36:59;16.00;61.60
26579;DHT22;14227;47.674;19.320;2023-02-18T19:40:16;16.00;61.60
26579;DHT22;14227;47.674;19.320;2023-02-18T19:43:26;16.00;61.60
26579;DHT22;14227;47.674;19.320;2023-02-18T19:46:31;16.00;61.60
26579;DHT22;14227;47.674;19.320;2023-02-18T19:49:14;15.90;61.50
26579;DHT22;14227;47.674;19.320;2023-02-18T19:52:21;16.00;61.60
26579;DHT22;14227;47.674;19.320;2023-02-18T19:55:19;15.90;61.50
26579;DHT22;14227;47.674;19.320;2023-02-18T19:58:53;15.90;61.50
26579;DHT22;14227;47.674;19.320;2023-02-18T20:02:26;15.90;61.50
26579;DHT22;14227;47.674;19.320;2023-02-18T20:06:03;16.00;61.30
26579;DHT22;14227;47.674;19.320;2023-02-18T20:09:13;15.90;61.00
26579;DHT22;14227;47.674;19.320;2023-02-18T20:16:13;15.80;60.80
26579;DHT22;14227;47.674;19.320;2023-02-18T20:19:13;15.90;60.80
26579;DHT22;14227;47.674;19.320;2023-02-18T20:22:22;15.90;61.00
26579;DHT22;14227;47.674;19.320;2023-02-18T20:25:41;15.80;60.50
26579;DHT22;14227;47.674;19.320;2023-02-18T20:28:55;15.80;60.40
26579;DHT22;14227;47.674;19.320;2023-02-18T20:39:08;15.80;60.20
26579;DHT22;14227;47.674;19.320;2023-02-18T20:42:01;15.80;60.10
26579;DHT22;14227;47.674;19.320;2023-02-18T20:44:41;15.80;60.00
26579;DHT22;14227;47.674;19.320;2023-02-18T20:47:35;15.80;60.10
26579;DHT22;14227;47.674;19.320;2023-02-18T20:51:06;15.80;60.00
26579;DHT22;14227;47.674;19.320;2023-02-18T20:54:38;15.70;59.80
26579;DHT22;14227;47.674;19.320;2023-02-18T20:58:21;15.80;59.80
26579;DHT22;14227;47.674;19.320;2023-02-18T21:01:57;15.80;59.80
26579;DHT22;14227;47.674;19.320;2023-02-18T21:05:13;15.70;59.60
26579;DHT22;14227;47.674;19.320;2023-02-18T21:08:24;15.70;59.60
26579;DHT22;14227;47.674;19.320;2023-02-18T21:11:42;15.70;59.60
26579;DHT22;14227;47.674;19.320;2023-02-18T21:14:57;15.70;59.40
26579;DHT22;14227;47.674;19.320;2023-02-18T21:18:15;15.70;59.40
26579;DHT22;14227;47.674;19.320;2023-02-18T21:21:08;15.70;59.40
26579;DHT22;14227;47.674;19.320;2023-02-18T21:31:23;15.70;59.20
26579;DHT22;14227;47.674;19.320;2023-02-18T21:34:31;15.60;59.00
26579;DHT22;14227;47.674;19.320;2023-02-18T21:37:30;15.60;59.00
26579;DHT22;14227;47.674;19.320;2023-02-18T21:40:28;15.70;59.20
26579;DHT22;14227;47.674;19.320;2023-02-18T21:43:16;15.60;59.00
26579;DHT22;14227;47.674;19.320;2023-02-18T21:46:15;15.60;59.00
26579;DHT22;14227;47.674;19.320;2023-02-18T21:49:41;15.70;59.00
26579;DHT22;14227;47.674;19.320;2023-02-18T21:52:17;15.60;58.80
26579;DHT22;14227;47.674;19.320;2023-02-18T21:55:21;15.60;58.80
26579;DHT22;14227;47.674;19.320;2023-02-18T21:58:14;15.60;58.80
26579;DHT22;14227;47.674;19.320;2023-02-18T22:01:28;15.60;58.80
26579;DHT22;14227;47.674;19.320;2023-02-18T22:04:59;15.60;58.80
26579;DHT22;14227;47.674;19.320;2023-02-18T22:08:15;15.60;58.80
26579;DHT22;14227;47.674;19.320;2023-02-18T22:11:11;15.60;58.80
26579;DHT22;14227;47.674;19.320;2023-02-18T22:14:20;15.50;58.60
26579;DHT22;14227;47.674;19.320;2023-02-18T22:17:53;15.60;58.70
26579;DHT22;14227;47.674;19.320;2023-02-18T22:21:23;15.60;58.70
26579;DHT22;14227;47.674;19.320;2023-02-18T22:24:38;15.50;58.60
26579;DHT22;14227;47.674;19.320;2023-02-18T22:27:38;15.60;58.80
26579;DHT22;14227;47.674;19.320;2023-02-18T22:34:53;15.50;58.60
26579;DHT22;14227;47.674;19.320;2023-02-18T22:37:50;15.50;58.70
26579;DHT22;14227;47.674;19.320;2023-02-18T22:44:56;15.50;58.50